Main page
METAR-TAF:

METAR-TAF

Airports :

Hamad International Airport

Doha, Qatar

latitude: 25-16-23N, longitude: 51-36-29E, elevation: 4 m

Current weather observation

The report was made 34 minutes ago, at 12:00 UTC
Wind 10 kt from the East/Southeast
Temperature 39°C
Humidity 43%
Pressure 1000 hPa
Visibility 10 km or more
no clouds below 1500 m and no cumulonimbus

METAR: OTHH 251200Z 12010KT CAVOK 39/24 Q1000 NOSIG

Time: 15:34 (12:34 UTC)

Forecast

The report was made 1 hour and 34 minutes ago, at 11:00 UTC
Forecast valid from 25 at 12 UTC to 26 at 18 UTC
Wind 9 kt from the East/Northeast
Visibility: 7000 m
Temporary
from 25 at 18 UTC to 25 at 23 UTC
Wind 3 kt from variable directions

TAF: OTHH 251100Z 2512/2618 07009KT 7000 NSC TEMPO 2518/2523 VRB03KT

Weather observations and forecasts of more than 4000 airports (METAR and TAF reports).

The available stations are represented by yellow and red dots on the map.

Hover mouse over dot to see the name of the station.

Then click to see weather observations and forecasts.

To change the map : click on the green buttons with a black cross to zoom in, on the green button with a dash to zoom out, or on the green arrows for adjacent maps.


METAR-TAF: